createdAt,value
2022-12-22T00:02:45.476Z,98704.09
2022-12-22T00:05:35.546Z,98702.45
2022-12-22T00:08:22.215Z,98698.56
2022-12-22T00:11:10.249Z,98688.92
2022-12-22T00:13:58.585Z,98684.05
2022-12-22T00:16:50.864Z,98683.56
2022-12-22T00:19:37.802Z,98684.23
2022-12-22T00:22:31.850Z,98676.19
2022-12-22T00:25:18.491Z,98672.85
2022-12-22T00:28:04.668Z,98670.00
2022-12-22T00:30:51.162Z,98664.04
2022-12-22T00:33:39.132Z,98665.22
2022-12-22T00:36:30.836Z,98664.88
2022-12-22T00:39:17.080Z,98665.92
2022-12-22T00:42:03.489Z,98661.54
2022-12-22T00:44:49.945Z,98662.95
2022-12-22T00:47:49.274Z,98658.80
2022-12-22T00:50:36.348Z,98661.09
2022-12-22T00:53:23.874Z,98663.44
2022-12-22T00:56:10.095Z,98657.75
2022-12-22T00:58:57.160Z,98657.80
2022-12-22T01:01:43.725Z,98660.48
2022-12-22T01:04:30.244Z,98658.42
2022-12-22T01:07:16.995Z,98661.95
2022-12-22T01:10:09.890Z,98661.11
2022-12-22T01:12:59.141Z,98661.15
2022-12-22T01:15:47.465Z,98661.05
2022-12-22T01:18:34.731Z,98660.00
2022-12-22T01:21:22.204Z,98654.27
2022-12-22T01:24:08.847Z,98650.01
2022-12-22T01:26:55.067Z,98654.94
2022-12-22T01:29:41.329Z,98645.94
2022-12-22T01:32:33.743Z,98639.27
2022-12-22T01:35:19.870Z,98639.59
2022-12-22T01:38:06.246Z,98638.18
2022-12-22T01:40:52.624Z,98642.00
2022-12-22T01:43:45.881Z,98635.16
2022-12-22T01:46:44.348Z,98633.02
2022-12-22T01:49:35.648Z,98629.30
2022-12-22T01:52:23.080Z,98628.50
2022-12-22T01:55:10.367Z,98629.23
2022-12-22T01:57:56.887Z,98622.91
2022-12-22T02:00:44.406Z,98617.23
2022-12-22T02:03:39.249Z,98610.80
2022-12-22T02:07:04.263Z,98603.52
2022-12-22T02:10:09.296Z,98602.30
2022-12-22T02:13:06.970Z,98607.80
2022-12-22T02:16:12.458Z,98610.17
2022-12-22T02:19:20.333Z,98609.73
2022-12-22T02:22:21.501Z,98614.45
2022-12-22T02:25:21.687Z,98605.41
2022-12-22T02:28:12.335Z,98599.91
2022-12-22T02:30:59.727Z,98595.13
2022-12-22T02:33:46.182Z,98586.46
2022-12-22T02:36:35.812Z,98575.42
2022-12-22T02:39:28.395Z,98571.42
2022-12-22T02:42:45.971Z,98569.54
2022-12-22T02:46:17.489Z,98570.10
2022-12-22T02:49:18.924Z,98561.00
2022-12-22T02:52:13.122Z,98554.25
2022-12-22T02:54:59.911Z,98552.42
2022-12-22T02:57:47.575Z,98560.48
2022-12-22T03:00:34.299Z,98563.13
2022-12-22T03:03:20.886Z,98564.31
2022-12-22T03:06:07.194Z,98558.84
2022-12-22T03:08:53.668Z,98557.44
2022-12-22T03:11:39.871Z,98558.92
2022-12-22T03:14:26.234Z,98557.05
2022-12-22T03:17:12.481Z,98558.39
2022-12-22T03:19:58.937Z,98554.60
2022-12-22T03:22:45.355Z,98550.80
2022-12-22T03:25:32.230Z,98550.94
2022-12-22T03:28:05.344Z,98550.80
2022-12-22T03:30:33.822Z,98540.63
2022-12-22T03:33:01.660Z,98540.27
2022-12-22T03:35:29.496Z,98535.08
2022-12-22T03:37:57.363Z,98535.63
2022-12-22T03:40:25.181Z,98537.05
2022-12-22T03:43:11.478Z,98531.73
2022-12-22T03:45:57.806Z,98529.57
2022-12-22T03:48:25.718Z,98527.95
2022-12-22T03:50:53.525Z,98522.36
2022-12-22T03:53:21.377Z,98519.70
2022-12-22T03:55:49.282Z,98517.13
2022-12-22T03:58:17.126Z,98513.53
2022-12-22T04:00:45.142Z,98512.95
2022-12-22T04:03:14.310Z,98505.89
2022-12-22T04:05:42.233Z,98503.14
2022-12-22T04:08:10.039Z,98494.10
2022-12-22T04:10:56.015Z,98502.17
2022-12-22T04:13:23.812Z,98512.05
2022-12-22T04:15:51.843Z,98517.02
2022-12-22T04:18:19.722Z,98518.14
2022-12-22T04:20:48.867Z,98523.08
2022-12-22T04:23:16.707Z,98523.05
2022-12-22T04:25:44.573Z,98519.27
2022-12-22T04:28:12.453Z,98523.27
2022-12-22T04:30:40.257Z,98522.57
2022-12-22T04:33:08.126Z,98519.95
2022-12-22T04:35:35.953Z,98509.50
2022-12-22T04:38:03.781Z,98499.47
2022-12-22T04:40:31.733Z,98491.99
2022-12-22T04:42:59.590Z,98485.41
2022-12-22T04:45:27.593Z,98481.45
2022-12-22T04:47:55.456Z,98483.94
2022-12-22T04:50:23.290Z,98479.00
2022-12-22T04:52:51.018Z,98485.64
2022-12-22T04:55:19.013Z,98484.48
2022-12-22T04:57:46.884Z,98480.70
2022-12-22T05:00:15.480Z,98479.23
2022-12-22T05:02:43.426Z,98479.30
2022-12-22T05:05:11.478Z,98478.24
2022-12-22T05:07:39.288Z,98472.45
2022-12-22T05:10:07.788Z,98458.80
2022-12-22T05:12:54.175Z,98446.86
2022-12-22T05:15:30.524Z,98443.45
2022-12-22T05:17:59.687Z,98439.39
2022-12-22T05:20:27.939Z,98441.55
2022-12-22T05:22:56.035Z,98450.19
2022-12-22T05:25:24.110Z,98452.23
2022-12-22T05:27:52.020Z,98456.08
2022-12-22T05:30:20.467Z,98455.95
2022-12-22T05:32:48.335Z,98452.60
2022-12-22T05:35:16.473Z,98451.98
2022-12-22T05:37:44.361Z,98453.22
2022-12-22T05:40:12.825Z,98446.22
2022-12-22T05:42:40.700Z,98445.37
2022-12-22T05:45:15.584Z,98434.45
2022-12-22T05:47:45.129Z,98438.02
2022-12-22T05:50:15.134Z,98433.98
2022-12-22T05:52:44.700Z,98428.85
2022-12-22T05:55:14.094Z,98432.46
2022-12-22T05:57:42.181Z,98424.64
2022-12-22T06:00:14.199Z,98421.92
2022-12-22T06:02:43.599Z,98421.27
2022-12-22T06:05:13.274Z,98418.75
2022-12-22T06:07:41.746Z,98415.77
2022-12-22T06:10:12.699Z,98409.56
2022-12-22T06:12:42.226Z,98407.53
2022-12-22T06:15:13.171Z,98409.49
2022-12-22T06:17:44.902Z,98412.77
2022-12-22T06:20:14.044Z,98408.18
2022-12-22T06:22:41.980Z,98401.13
2022-12-22T06:25:17.234Z,98403.91
2022-12-22T06:27:47.229Z,98400.33
2022-12-22T06:30:16.357Z,98398.20
2022-12-22T06:32:44.346Z,98399.67
2022-12-22T06:35:12.245Z,98402.64
2022-12-22T06:37:40.602Z,98403.66
2022-12-22T06:40:09.820Z,98403.95
2022-12-22T06:42:58.566Z,98400.59
2022-12-22T06:45:30.126Z,98396.63
2022-12-22T06:47:58.059Z,98396.03
2022-12-22T06:50:25.944Z,98389.96
2022-12-22T06:52:53.840Z,98391.13
2022-12-22T06:55:22.186Z,98386.15
2022-12-22T06:57:50.040Z,98382.58
2022-12-22T07:00:18.246Z,98377.35
2022-12-22T07:02:46.326Z,98373.52
2022-12-22T07:05:15.672Z,98369.54
2022-12-22T07:07:43.667Z,98369.50
2022-12-22T07:10:12.530Z,98373.77
2022-12-22T07:12:40.535Z,98374.97
2022-12-22T07:15:09.531Z,98376.69
2022-12-22T07:17:37.525Z,98377.14
2022-12-22T07:20:05.739Z,98373.90
2022-12-22T07:22:33.601Z,98369.64
2022-12-22T07:25:01.439Z,98367.11
2022-12-22T07:27:29.349Z,98366.02
2022-12-22T07:29:57.212Z,98363.98
2022-12-22T07:32:25.000Z,98365.59
2022-12-22T07:34:52.889Z,98367.70
2022-12-22T07:37:20.719Z,98365.34
2022-12-22T07:39:48.573Z,98364.80
2022-12-22T07:42:35.160Z,98367.29
2022-12-22T07:45:03.043Z,98354.19
2022-12-22T07:47:35.194Z,98350.73
2022-12-22T07:50:23.253Z,98337.70
2022-12-22T07:52:52.893Z,98337.38
2022-12-22T07:55:21.122Z,98334.34
2022-12-22T07:57:49.231Z,98331.59
2022-12-22T08:00:18.033Z,98332.11
2022-12-22T08:02:51.048Z,98328.48
2022-12-22T08:05:19.805Z,98318.66
2022-12-22T08:07:52.366Z,98309.12
2022-12-22T08:10:20.819Z,98306.42
2022-12-22T08:12:48.689Z,98308.80
2022-12-22T08:15:16.757Z,98306.77
2022-12-22T08:17:44.602Z,98299.63
2022-12-22T08:20:12.507Z,98291.77
2022-12-22T08:22:40.403Z,98286.23
2022-12-22T08:25:08.703Z,98284.92
2022-12-22T08:27:42.571Z,98281.50
2022-12-22T08:30:11.253Z,98280.48
2022-12-22T08:32:40.605Z,98278.48
2022-12-22T08:35:09.711Z,98273.00
2022-12-22T08:37:42.974Z,98272.13
2022-12-22T08:40:15.158Z,98267.44
2022-12-22T08:42:43.199Z,98263.80
2022-12-22T08:45:11.460Z,98257.55
2022-12-22T08:47:39.293Z,98259.14
2022-12-22T08:50:07.777Z,98249.69
2022-12-22T08:52:35.647Z,98245.13
2022-12-22T08:55:03.709Z,98246.38
2022-12-22T08:57:31.581Z,98253.27
2022-12-22T08:59:59.804Z,98250.23
2022-12-22T09:02:27.739Z,98248.83
2022-12-22T09:04:55.637Z,98246.15
2022-12-22T09:07:23.466Z,98243.73
2022-12-22T09:09:51.424Z,98243.29
2022-12-22T09:12:19.223Z,98242.73
2022-12-22T09:14:47.059Z,98233.85
2022-12-22T09:17:15.232Z,98231.77
2022-12-22T09:19:43.149Z,98232.65
2022-12-22T09:22:11.501Z,98227.13
2022-12-22T09:24:39.344Z,98217.21
2022-12-22T09:27:09.145Z,98212.63
2022-12-22T09:29:39.765Z,98210.41
2022-12-22T09:32:07.632Z,98206.58
2022-12-22T09:34:35.527Z,98199.49
2022-12-22T09:37:03.471Z,98203.77
2022-12-22T09:39:31.345Z,98209.98
2022-12-22T09:41:59.436Z,98208.86
2022-12-22T09:44:34.613Z,98209.58
2022-12-22T09:47:10.328Z,98206.84
2022-12-22T09:49:38.306Z,98207.33
2022-12-22T09:52:18.737Z,98201.95
2022-12-22T09:54:46.601Z,98198.77
2022-12-22T09:57:14.469Z,98200.13
2022-12-22T09:59:42.293Z,98191.27
2022-12-22T10:02:24.612Z,98186.16
2022-12-22T10:05:17.919Z,98179.92
2022-12-22T10:07:45.914Z,98167.90
2022-12-22T10:10:27.429Z,98154.02
2022-12-22T10:12:57.481Z,98151.36
2022-12-22T10:15:26.147Z,98152.55
2022-12-22T10:18:10.318Z,98137.56
2022-12-22T10:20:39.897Z,98140.50
2022-12-22T10:23:18.631Z,98139.41
2022-12-22T10:28:59.388Z,98142.87
2022-12-22T10:31:35.041Z,98139.15
2022-12-22T10:34:17.145Z,98131.55
2022-12-22T10:36:50.259Z,98132.19
2022-12-22T10:39:36.309Z,98122.48
2022-12-22T10:42:13.394Z,98113.05
2022-12-22T10:44:47.804Z,98113.30
2022-12-22T10:47:24.149Z,98108.48
2022-12-22T10:52:30.626Z,98101.52
2022-12-22T10:55:21.814Z,98105.30
2022-12-22T10:57:50.308Z,98115.13
2022-12-22T11:00:28.799Z,98120.27
2022-12-22T11:02:59.404Z,98121.60
2022-12-22T11:05:28.121Z,98121.02
2022-12-22T11:07:57.551Z,98123.34
2022-12-22T11:10:47.796Z,98114.64
2022-12-22T11:13:15.577Z,98107.13
2022-12-22T11:16:04.203Z,98103.83
2022-12-22T11:19:29.475Z,98099.52
2022-12-22T11:22:00.923Z,98084.48
2022-12-22T11:24:59.892Z,98083.77
2022-12-22T11:28:01.949Z,98084.85
2022-12-22T11:30:43.822Z,98081.58
2022-12-22T11:33:21.157Z,98069.31
2022-12-22T11:35:57.571Z,98059.21
2022-12-22T11:38:33.010Z,98056.91
2022-12-22T11:41:14.350Z,98054.91
2022-12-22T11:44:28.057Z,98050.13
2022-12-22T11:47:07.187Z,98042.45
2022-12-22T11:50:59.572Z,98041.30
2022-12-22T11:53:12.352Z,98025.44
2022-12-22T11:56:15.474Z,98025.81
2022-12-22T11:59:12.499Z,98019.20
2022-12-22T12:01:59.157Z,98017.48
2022-12-22T12:04:50.286Z,98017.53
2022-12-22T12:07:28.004Z,98015.38
2022-12-22T12:10:22.385Z,98019.20
2022-12-22T12:13:08.608Z,98011.70
2022-12-22T12:15:44.411Z,98001.65
2022-12-22T12:18:27.333Z,98004.38
2022-12-22T12:21:04.527Z,98005.65
2022-12-22T12:23:54.772Z,98000.75
2022-12-22T12:26:51.527Z,98001.34
2022-12-22T12:29:37.371Z,97993.17
2022-12-22T12:32:17.036Z,97986.04
2022-12-22T12:34:54.209Z,97982.96
2022-12-22T12:37:29.641Z,97974.08
2022-12-22T12:40:08.058Z,97961.02
2022-12-22T12:42:45.416Z,97957.06
2022-12-22T12:45:31.853Z,97956.48
2022-12-22T12:48:22.194Z,97956.11
2022-12-22T12:50:57.871Z,97969.75
2022-12-22T12:53:27.870Z,97982.57
2022-12-22T12:56:06.158Z,97986.05
2022-12-22T12:58:40.055Z,97988.73
2022-12-22T13:01:32.992Z,97989.29
2022-12-22T13:04:04.243Z,97982.85
2022-12-22T13:06:53.553Z,97981.75
2022-12-22T13:09:50.036Z,97978.98
2022-12-22T13:12:48.380Z,97977.99
2022-12-22T13:15:31.489Z,97972.58
2022-12-22T13:18:00.891Z,97972.09
2022-12-22T13:20:34.814Z,97976.36
2022-12-22T13:23:10.241Z,97973.27
2022-12-22T13:25:48.603Z,97971.78
2022-12-22T13:28:19.146Z,97972.55
2022-12-22T13:31:28.674Z,97976.61
2022-12-22T13:34:24.936Z,97980.13
2022-12-22T13:36:54.557Z,97986.10
2022-12-22T13:39:22.334Z,97982.96
2022-12-22T13:41:51.494Z,97985.48
2022-12-22T13:44:32.847Z,97987.92
2022-12-22T13:47:07.479Z,97993.55
2022-12-22T13:50:07.293Z,97993.73
2022-12-22T13:52:23.933Z,97996.69
2022-12-22T13:54:51.852Z,98000.56
2022-12-22T13:57:22.239Z,97996.88
2022-12-22T13:59:51.596Z,97994.71
2022-12-22T14:02:21.368Z,97995.86
2022-12-22T14:05:10.605Z,97997.52
2022-12-22T14:07:39.107Z,97993.86
2022-12-22T14:10:08.421Z,97992.63
2022-12-22T14:12:46.989Z,97990.75
2022-12-22T14:15:18.806Z,97988.64
2022-12-22T14:17:53.711Z,97986.83
2022-12-22T14:20:29.371Z,97982.20
2022-12-22T14:23:02.757Z,97979.56
2022-12-22T14:25:36.061Z,97979.09
2022-12-22T14:28:07.292Z,97979.67
2022-12-22T14:30:41.527Z,97970.02
2022-12-22T14:33:27.584Z,97966.42
2022-12-22T14:36:21.745Z,97973.98
2022-12-22T14:38:55.036Z,97970.20
2022-12-22T14:41:43.689Z,97969.67
2022-12-22T14:44:33.185Z,97977.73
2022-12-22T14:47:09.717Z,97980.41
2022-12-22T14:50:20.268Z,97974.48
2022-12-22T14:52:57.022Z,97976.90
2022-12-22T14:55:42.155Z,97981.14
2022-12-22T14:58:10.035Z,97985.58
2022-12-22T15:00:46.745Z,97988.92
2022-12-22T15:03:32.765Z,97984.11
2022-12-22T15:06:22.566Z,97985.98
2022-12-22T15:08:53.415Z,97980.55
2022-12-22T15:11:24.422Z,97988.16
2022-12-22T15:13:52.390Z,97990.36
2022-12-22T15:16:22.492Z,97989.80
2022-12-22T15:18:51.295Z,97990.29
2022-12-22T15:21:20.809Z,97988.67
2022-12-22T15:23:48.899Z,97988.48
2022-12-22T15:26:16.687Z,97991.52
2022-12-22T15:28:44.474Z,97987.81
2022-12-22T15:31:15.356Z,97987.14
2022-12-22T15:33:44.924Z,97984.98
2022-12-22T15:36:14.397Z,97983.11
2022-12-22T15:38:43.049Z,97979.41
2022-12-22T15:41:10.948Z,97975.34
2022-12-22T15:43:57.851Z,97980.44
2022-12-22T15:46:26.567Z,97984.25
2022-12-22T15:48:54.535Z,97979.67
2022-12-22T15:51:27.959Z,97977.50
2022-12-22T15:53:57.176Z,97977.09
2022-12-22T15:56:27.214Z,97976.35
2022-12-22T15:58:55.219Z,97978.85
2022-12-22T16:01:23.105Z,97983.66
2022-12-22T16:03:51.175Z,97987.25
2022-12-22T16:06:19.664Z,97986.48
2022-12-22T16:08:50.963Z,97984.77
2022-12-22T16:11:19.486Z,97986.45
2022-12-22T16:13:49.291Z,97980.80
2022-12-22T16:16:17.678Z,97977.51
2022-12-22T16:18:45.524Z,97979.09
2022-12-22T16:21:17.682Z,97976.23
2022-12-22T16:23:47.988Z,97973.11
2022-12-22T16:26:20.052Z,97972.23
2022-12-22T16:28:48.500Z,97969.94
2022-12-22T16:31:23.261Z,97968.34
2022-12-22T16:33:51.992Z,97969.50
2022-12-22T16:36:19.925Z,97965.11
2022-12-22T16:38:48.015Z,97962.77
2022-12-22T16:41:23.912Z,97965.64
2022-12-22T16:46:40.873Z,97968.89
2022-12-22T16:49:09.370Z,97970.66
2022-12-22T16:51:44.671Z,97967.86
2022-12-22T16:54:15.904Z,97968.06
2022-12-22T16:56:46.983Z,97974.88
2022-12-22T16:59:15.122Z,97975.02
2022-12-22T17:01:53.814Z,97969.53
2022-12-22T17:04:26.005Z,97967.59
2022-12-22T17:06:55.470Z,97974.33
2022-12-22T17:09:28.087Z,97974.41
2022-12-22T17:11:55.936Z,97983.03
2022-12-22T17:14:37.703Z,97987.11
2022-12-22T17:17:06.027Z,97986.73
2022-12-22T17:19:33.860Z,97984.77
2022-12-22T17:22:01.774Z,97984.41
2022-12-22T17:24:29.816Z,97987.41
2022-12-22T17:27:04.201Z,97994.84
2022-12-22T17:29:32.183Z,97992.91
2022-12-22T17:31:59.987Z,97993.06
2022-12-22T17:34:27.855Z,97995.73
2022-12-22T17:36:58.800Z,97997.25
2022-12-22T17:39:26.729Z,97999.81
2022-12-22T17:41:57.418Z,97999.77
2022-12-22T17:44:27.078Z,98000.15
2022-12-22T17:46:55.117Z,98001.06
2022-12-22T17:49:23.044Z,98000.61
2022-12-22T17:51:50.977Z,97995.42
2022-12-22T17:54:25.729Z,97993.29
2022-12-22T17:57:01.956Z,97993.77
2022-12-22T17:59:30.905Z,97994.13
2022-12-22T18:01:59.308Z,97994.28
2022-12-22T18:04:27.304Z,97996.21
2022-12-22T18:06:56.025Z,97994.30
2022-12-22T18:09:26.367Z,97997.33
2022-12-22T18:11:54.297Z,97999.11
2022-12-22T18:14:23.120Z,98002.95
2022-12-22T18:16:51.135Z,98005.10
2022-12-22T18:19:19.440Z,98010.41
2022-12-22T18:21:47.429Z,98011.02
2022-12-22T18:24:17.366Z,98012.83
2022-12-22T18:26:46.988Z,98016.17
2022-12-22T18:29:16.116Z,98020.52
2022-12-22T18:31:46.448Z,98027.54
2022-12-22T18:34:15.365Z,98030.58
2022-12-22T18:36:45.517Z,98035.98
2022-12-22T18:39:19.104Z,98033.42
2022-12-22T18:41:47.254Z,98036.22
2022-12-22T18:44:19.177Z,98043.27
2022-12-22T18:46:48.758Z,98040.55
2022-12-22T18:49:17.113Z,98041.69
2022-12-22T18:51:45.553Z,98045.16
2022-12-22T18:54:36.783Z,98047.75
2022-12-22T18:57:13.077Z,98051.45
2022-12-22T18:59:41.951Z,98053.35
2022-12-22T19:02:12.595Z,98051.70
2022-12-22T19:04:41.623Z,98055.11
2022-12-22T19:07:18.757Z,98062.02
2022-12-22T19:09:47.612Z,98062.19
2022-12-22T19:12:18.545Z,98064.92
2022-12-22T19:14:51.656Z,98063.31
2022-12-22T19:17:22.134Z,98067.45
2022-12-22T19:19:50.132Z,98069.40
2022-12-22T19:22:17.932Z,98071.58
2022-12-22T19:24:46.327Z,98070.54
2022-12-22T19:27:21.832Z,98073.95
2022-12-22T19:29:53.825Z,98077.67
2022-12-22T19:32:30.517Z,98077.98
2022-12-22T19:34:58.438Z,98077.98
2022-12-22T19:37:26.254Z,98078.62
2022-12-22T19:39:54.085Z,98084.95
2022-12-22T19:42:24.026Z,98091.96
2022-12-22T19:44:52.046Z,98096.20
2022-12-22T19:47:24.418Z,98094.55
2022-12-22T19:49:52.749Z,98099.23
2022-12-22T19:52:20.722Z,98100.20
2022-12-22T19:54:48.671Z,98101.20
2022-12-22T19:57:22.404Z,98100.27
2022-12-22T19:59:52.636Z,98103.38
2022-12-22T20:02:21.313Z,98107.27
2022-12-22T20:04:50.235Z,98109.77
2022-12-22T20:07:20.302Z,98112.67
2022-12-22T20:09:48.317Z,98119.27
2022-12-22T20:12:30.661Z,98127.31
2022-12-22T20:15:07.297Z,98132.35
2022-12-22T20:17:35.087Z,98134.16
2022-12-22T20:20:03.081Z,98132.11
2022-12-22T20:22:31.084Z,98136.88
2022-12-22T20:24:59.323Z,98141.96
2022-12-22T20:27:33.074Z,98139.30
2022-12-22T20:30:01.247Z,98149.27
2022-12-22T20:32:29.360Z,98149.95
2022-12-22T20:34:57.406Z,98147.72
2022-12-22T20:37:25.564Z,98148.48
2022-12-22T20:39:53.403Z,98147.80
2022-12-22T20:42:23.417Z,98149.94
2022-12-22T20:45:02.569Z,98150.52
2022-12-22T20:47:33.716Z,98149.77
2022-12-22T20:50:01.705Z,98151.48
2022-12-22T20:52:29.583Z,98148.77
2022-12-22T20:54:57.431Z,98153.34
2022-12-22T20:57:26.499Z,98152.11
2022-12-22T20:59:57.055Z,98156.69
2022-12-22T21:02:29.304Z,98153.86
2022-12-22T21:04:57.572Z,98159.42
2022-12-22T21:07:27.894Z,98158.70
2022-12-22T21:09:55.945Z,98160.23
2022-12-22T21:12:23.830Z,98166.06
2022-12-22T21:14:51.992Z,98171.25
2022-12-22T21:17:19.897Z,98170.80
2022-12-22T21:19:47.781Z,98174.09
2022-12-22T21:22:15.841Z,98177.77
2022-12-22T21:24:44.009Z,98183.14
2022-12-22T21:27:18.952Z,98186.92
2022-12-22T21:29:47.263Z,98188.67
2022-12-22T21:32:16.064Z,98186.60
2022-12-22T21:34:43.864Z,98182.58
2022-12-22T21:37:18.346Z,98185.75
2022-12-22T21:39:46.225Z,98184.05
2022-12-22T21:42:16.098Z,98190.96
2022-12-22T21:44:46.864Z,98192.13
2022-12-22T21:47:17.582Z,98188.13
2022-12-22T21:49:45.460Z,98192.15
2022-12-22T21:52:13.403Z,98193.64
2022-12-22T21:54:41.283Z,98194.33
2022-12-22T21:57:15.775Z,98196.83
2022-12-22T21:59:43.875Z,98197.22
2022-12-22T22:02:16.536Z,98196.42
2022-12-22T22:04:50.170Z,98201.60
2022-12-22T22:07:22.589Z,98204.42
2022-12-22T22:09:50.460Z,98201.95
2022-12-22T22:12:33.581Z,98200.39
2022-12-22T22:15:01.960Z,98197.09
2022-12-22T22:17:30.141Z,98196.23
2022-12-22T22:19:58.051Z,98198.05
2022-12-22T22:22:25.874Z,98203.07
2022-12-22T22:24:53.789Z,98202.80
2022-12-22T22:27:21.715Z,98204.64
2022-12-22T22:29:49.585Z,98201.55
2022-12-22T22:32:17.498Z,98201.42
2022-12-22T22:34:45.317Z,98207.69
2022-12-22T22:37:13.138Z,98208.30
2022-12-22T22:39:41.048Z,98210.50
2022-12-22T22:42:08.891Z,98208.91
2022-12-22T22:44:36.687Z,98212.11
2022-12-22T22:47:04.824Z,98210.59
2022-12-22T22:49:32.874Z,98212.51
2022-12-22T22:52:00.782Z,98217.83
2022-12-22T22:54:28.655Z,98213.73
2022-12-22T22:56:56.558Z,98213.89
2022-12-22T22:59:24.402Z,98208.08
2022-12-22T23:01:52.286Z,98203.70
2022-12-22T23:04:20.383Z,98205.41
2022-12-22T23:06:48.403Z,98204.00
2022-12-22T23:09:16.297Z,98204.45
2022-12-22T23:11:44.231Z,98199.38
2022-12-22T23:14:12.165Z,98200.04
2022-12-22T23:16:40.009Z,98190.55
2022-12-22T23:19:08.038Z,98185.63
2022-12-22T23:21:35.906Z,98187.17
2022-12-22T23:24:04.095Z,98194.02
2022-12-22T23:26:32.384Z,98192.52
2022-12-22T23:29:03.600Z,98189.75
2022-12-22T23:31:33.472Z,98187.09
2022-12-22T23:34:01.831Z,98181.66
2022-12-22T23:36:29.780Z,98186.27
2022-12-22T23:38:58.113Z,98186.90
2022-12-22T23:41:26.040Z,98174.17
2022-12-22T23:43:54.714Z,98170.20
2022-12-22T23:46:23.076Z,98171.31
2022-12-22T23:48:52.757Z,98175.13
2022-12-22T23:51:22.782Z,98176.46
2022-12-22T23:53:50.698Z,98174.27
2022-12-22T23:56:19.607Z,98175.41
2022-12-22T23:58:52.552Z,98179.18
